Sheridan, WY (82801)

11:10 PM MST on December 05, 2016 (GMT -0700)
South Sheridan | | Change Station

Elev 3770 ft 44.79 °N, 106.95 °W | Updated 3 seconds ago

Scattered Clouds
Scattered Clouds
8.4 °F
Feels Like 8 °F
N
0.0
Wind Variable Wind from SW
Gusts 0.0 mph

Today
High -- | Low -- °F
--% Chance of Precip.
Yesterday
High -- | Low -- °F
Precip. -- in
Pressure 30.19 in
Visibility 10.0 miles
Clouds Scattered Clouds 6500 ft
Windchill 8 °F
Dew Point -3 °F
Humidity 59%
Rainfall 0.00 in
Snow Depth Not available.
7:30 AM 4:27 PM
Waxing Crescent, 38% visible
METAR KSHR 060553Z AUTO 21004KT 10SM SCT065 M17/M19 A2998 RMK AO2 SLP224 T11671189 11078 21167 53006
Pressure 30.19 in
Visibility 10.0 miles
Clouds Scattered Clouds 6500 ft
Windchill 8 °F
Dew Point -3 °F
Humidity 59%
Rainfall 0.00 in
Snow Depth Not available.
7:30 AM 4:27 PM
Waxing Crescent, 38% visible
METAR KSHR 060553Z AUTO 21004KT 10SM SCT065 M17/M19 A2998 RMK AO2 SLP224 T11671189 11078 21167 53006

10-Day Weather Forecast

Almanac

Astronomy

Dec. 05, 2016 Rise Set
Actual Time
Civil Twilight
Nautical Twilight
Astronomical Twilight
Moon
Length of Visible Light
Length of Day
Tomorrow will be .
, % of the Moon is Illuminated

Today's Extremes

State Highs State Lows

Community

WunderPhotos

Upload Photos

1,955,931 photos uploaded!

WunderBlog® & News

Nearby

Air Quality

  Air Quality AQ Index Pollutant
Not available.

Snow Depth

Station Depth Elevation

Earthquake Activity

City Distance Mag. Time & Date
Minimum magnitude displayed is 2.5.

Coastal Water Temperatures

Place Temperature

Stations

Nearby Weather Stations

Station Location Temp. Windchill Dew Point Humidity Wind Precip. Elev Updated Type
                   

Watches & Warnings

There are currently no watches in effect.